createdAt,value
2022-12-25T00:00:01.143Z,13.82
2022-12-25T00:02:29.702Z,13.88
2022-12-25T00:07:23.100Z,12.45
2022-12-25T00:09:49.843Z,13.60
2022-12-25T00:12:16.707Z,13.30
2022-12-25T00:14:43.420Z,13.05
2022-12-25T00:17:10.100Z,14.27
2022-12-25T00:19:36.713Z,13.23
2022-12-25T00:22:03.356Z,12.48
2022-12-25T00:24:30.095Z,14.95
2022-12-25T00:26:56.759Z,13.05
2022-12-25T00:29:23.448Z,13.88
2022-12-25T00:31:50.185Z,13.05
2022-12-25T00:34:16.915Z,13.18
2022-12-25T00:36:43.585Z,12.45
2022-12-25T00:39:10.488Z,13.13
2022-12-25T00:41:55.966Z,12.60
2022-12-25T00:44:22.605Z,13.43
2022-12-25T00:46:49.505Z,12.23
2022-12-25T00:49:16.254Z,12.20
2022-12-25T00:51:42.902Z,11.93
2022-12-25T00:54:09.622Z,12.60
2022-12-25T00:56:37.444Z,12.40
2022-12-25T00:59:04.116Z,13.03
2022-12-25T01:01:30.843Z,11.60
2022-12-25T01:03:57.837Z,12.38
2022-12-25T01:06:24.711Z,13.18
2022-12-25T01:09:09.975Z,12.35
2022-12-25T01:11:37.695Z,11.32
2022-12-25T01:14:04.437Z,12.30
2022-12-25T01:16:31.299Z,12.75
2022-12-25T01:18:59.399Z,12.10
2022-12-25T01:21:26.164Z,13.20
2022-12-25T01:23:53.502Z,11.85
2022-12-25T01:26:22.456Z,13.55
2022-12-25T01:28:49.916Z,13.93
2022-12-25T01:31:18.771Z,13.02
2022-12-25T01:33:46.269Z,12.82
2022-12-25T01:36:19.343Z,13.60
2022-12-25T01:38:46.854Z,13.70
2022-12-25T01:41:15.211Z,13.90
2022-12-25T01:44:04.205Z,13.32
2022-12-25T01:46:31.517Z,13.55
2022-12-25T01:49:03.533Z,13.57
2022-12-25T01:51:35.646Z,13.60
2022-12-25T01:54:06.803Z,14.02
2022-12-25T01:56:37.212Z,13.18
2022-12-25T01:59:05.693Z,14.05
2022-12-25T02:01:32.736Z,14.20
2022-12-25T02:04:12.353Z,13.73
2022-12-25T02:06:39.702Z,13.77
2022-12-25T02:09:06.389Z,14.73
2022-12-25T02:11:51.946Z,14.02
2022-12-25T02:14:18.906Z,15.10
2022-12-25T02:16:57.864Z,15.07
2022-12-25T02:19:44.007Z,14.85
2022-12-25T02:22:31.776Z,14.77
2022-12-25T02:25:29.057Z,13.80
2022-12-25T02:28:21.563Z,14.43
2022-12-25T02:30:55.753Z,14.23
2022-12-25T02:34:09.549Z,14.38
2022-12-25T02:37:14.248Z,13.30
2022-12-25T02:40:12.805Z,13.82
2022-12-25T02:43:02.040Z,14.48
2022-12-25T02:46:06.106Z,14.48
2022-12-25T02:48:55.204Z,14.60
2022-12-25T02:51:43.691Z,15.00
2022-12-25T02:54:34.865Z,14.48
2022-12-25T02:57:23.678Z,13.75
2022-12-25T03:00:10.742Z,14.88
2022-12-25T03:02:58.144Z,14.98
2022-12-25T03:05:45.403Z,15.27
2022-12-25T03:08:18.601Z,13.85
2022-12-25T03:11:08.350Z,14.13
2022-12-25T03:13:39.624Z,15.20
2022-12-25T03:16:25.645Z,13.75
2022-12-25T03:18:55.728Z,14.43
2022-12-25T03:21:41.083Z,14.80
2022-12-25T03:24:26.649Z,14.88
2022-12-25T03:26:56.212Z,15.07
2022-12-25T03:30:12.689Z,14.70
2022-12-25T03:32:51.729Z,16.30
2022-12-25T03:35:44.097Z,15.57
2022-12-25T03:38:51.837Z,15.30
2022-12-25T03:41:54.415Z,16.77
2022-12-25T03:44:42.842Z,14.43
2022-12-25T03:47:35.480Z,16.23
2022-12-25T03:50:42.280Z,16.00
2022-12-25T03:53:40.633Z,16.15
2022-12-25T03:56:27.297Z,16.13
2022-12-25T03:59:21.090Z,16.95
2022-12-25T04:02:09.419Z,16.02
2022-12-25T04:04:54.663Z,16.05
2022-12-25T04:07:40.162Z,16.10
2022-12-25T04:10:26.176Z,15.40
2022-12-25T04:13:11.670Z,14.55
2022-12-25T04:15:57.357Z,14.63
2022-12-25T04:18:42.825Z,15.13
2022-12-25T04:21:28.442Z,14.50
2022-12-25T04:24:13.787Z,14.10
2022-12-25T04:26:59.267Z,14.35
2022-12-25T04:29:44.720Z,13.05
2022-12-25T04:32:30.236Z,13.05
2022-12-25T04:35:15.710Z,13.10
2022-12-25T04:37:42.431Z,11.80
2022-12-25T04:40:09.576Z,11.18
2022-12-25T04:42:36.348Z,11.52
2022-12-25T04:45:03.074Z,10.80
2022-12-25T04:47:29.728Z,10.95
2022-12-25T04:49:56.451Z,11.23
2022-12-25T04:52:23.097Z,11.05
2022-12-25T04:54:49.879Z,9.98
2022-12-25T04:57:17.232Z,10.55
2022-12-25T04:59:43.853Z,10.35
2022-12-25T05:02:10.654Z,9.90
2022-12-25T05:04:37.513Z,9.65
2022-12-25T05:07:04.169Z,10.00
2022-12-25T05:09:30.872Z,9.35
2022-12-25T05:11:57.512Z,9.13
2022-12-25T05:14:24.152Z,9.45
2022-12-25T05:16:50.831Z,10.48
2022-12-25T05:19:17.528Z,8.75
2022-12-25T05:21:44.207Z,9.40
2022-12-25T05:24:11.021Z,8.35
2022-12-25T05:26:37.759Z,9.18
2022-12-25T05:29:04.389Z,9.07
2022-12-25T05:31:32.968Z,8.75
2022-12-25T05:33:59.745Z,8.52
2022-12-25T05:36:26.682Z,8.23
2022-12-25T05:38:53.355Z,8.18
2022-12-25T05:41:20.210Z,7.13
2022-12-25T05:43:46.884Z,7.75
2022-12-25T05:46:14.369Z,7.22
2022-12-25T05:48:41.078Z,7.05
2022-12-25T05:51:10.834Z,7.53
2022-12-25T05:53:38.238Z,6.57
2022-12-25T05:56:07.068Z,7.43
2022-12-25T05:58:35.197Z,7.28
2022-12-25T06:01:02.580Z,6.90
2022-12-25T06:03:29.435Z,6.47
2022-12-25T06:05:56.310Z,6.78
2022-12-25T06:08:22.951Z,7.68
2022-12-25T06:10:49.654Z,6.88
2022-12-25T06:13:16.303Z,7.28
2022-12-25T06:15:42.993Z,6.45
2022-12-25T06:18:09.629Z,6.63
2022-12-25T06:20:39.589Z,6.10
2022-12-25T06:23:06.332Z,7.30
2022-12-25T06:25:33.081Z,5.70
2022-12-25T06:27:59.784Z,5.78
2022-12-25T06:30:26.821Z,5.55
2022-12-25T06:32:53.455Z,5.55
2022-12-25T06:35:20.136Z,6.10
2022-12-25T06:37:46.858Z,5.65
2022-12-25T06:40:13.892Z,5.70
2022-12-25T06:42:40.607Z,5.53
2022-12-25T06:45:07.858Z,5.63
2022-12-25T06:47:34.761Z,5.75
2022-12-25T06:50:01.396Z,5.28
2022-12-25T06:52:28.167Z,5.50
2022-12-25T06:54:54.849Z,5.15
2022-12-25T06:57:21.485Z,6.05
2022-12-25T06:59:53.150Z,5.20
2022-12-25T07:02:23.116Z,5.65
2022-12-25T07:04:50.137Z,5.45
2022-12-25T07:07:16.791Z,5.45
2022-12-25T07:09:43.525Z,5.93
2022-12-25T07:12:20.859Z,5.25
2022-12-25T07:14:50.959Z,4.97
2022-12-25T07:17:18.659Z,5.40
2022-12-25T07:19:48.068Z,5.05
2022-12-25T07:22:16.185Z,4.95
2022-12-25T07:24:42.860Z,4.72
2022-12-25T07:27:09.990Z,5.00
2022-12-25T07:29:36.657Z,4.30
2022-12-25T07:32:04.669Z,4.43
2022-12-25T07:34:33.747Z,5.03
2022-12-25T07:37:00.395Z,4.93
2022-12-25T07:39:27.068Z,5.00
2022-12-25T07:41:54.576Z,4.95
2022-12-25T07:44:21.246Z,5.63
2022-12-25T07:46:48.485Z,4.65
2022-12-25T07:49:15.152Z,5.28
2022-12-25T07:51:41.949Z,4.70
2022-12-25T07:54:08.742Z,4.50
2022-12-25T07:56:36.748Z,5.07
2022-12-25T07:59:03.904Z,4.55
2022-12-25T08:01:30.823Z,4.90
2022-12-25T08:04:00.830Z,4.85
2022-12-25T08:06:31.984Z,5.28
2022-12-25T08:09:10.699Z,4.60
2022-12-25T08:11:38.249Z,5.50
2022-12-25T08:14:09.076Z,5.40
2022-12-25T08:16:41.448Z,5.28
2022-12-25T08:19:09.008Z,5.72
2022-12-25T08:21:36.029Z,5.40
2022-12-25T08:24:03.266Z,5.50
2022-12-25T08:26:30.261Z,5.80
2022-12-25T08:28:57.159Z,5.63
2022-12-25T08:31:27.123Z,5.75
2022-12-25T08:33:56.763Z,5.93
2022-12-25T08:36:24.160Z,5.65
2022-12-25T08:38:51.273Z,5.57
2022-12-25T08:41:19.484Z,5.70
2022-12-25T08:43:46.644Z,6.18
2022-12-25T08:46:13.942Z,5.70
2022-12-25T08:48:48.435Z,5.38
2022-12-25T08:51:18.178Z,5.10
2022-12-25T08:53:47.905Z,5.45
2022-12-25T08:56:15.614Z,5.78
2022-12-25T08:58:42.930Z,5.63
2022-12-25T09:01:09.809Z,6.47
2022-12-25T09:03:36.738Z,4.75
2022-12-25T09:06:12.212Z,4.90
2022-12-25T09:08:44.225Z,4.57
2022-12-25T09:11:16.257Z,4.50
2022-12-25T09:13:43.333Z,4.90
2022-12-25T09:16:15.675Z,4.93
2022-12-25T09:18:42.418Z,4.40
2022-12-25T09:21:11.705Z,4.53
2022-12-25T09:23:38.643Z,3.85
2022-12-25T09:26:07.466Z,4.07
2022-12-25T09:28:35.026Z,3.88
2022-12-25T09:31:02.004Z,4.22
2022-12-25T09:33:28.680Z,4.18
2022-12-25T09:36:05.219Z,3.97
2022-12-25T09:38:32.670Z,4.15
2022-12-25T09:41:31.462Z,4.00
2022-12-25T09:44:04.003Z,3.83
2022-12-25T09:46:41.360Z,3.78
2022-12-25T09:49:30.035Z,4.75
2022-12-25T09:52:20.027Z,4.33
2022-12-25T09:55:01.087Z,5.10
2022-12-25T09:57:27.855Z,4.45
2022-12-25T09:59:55.975Z,4.28
2022-12-25T10:02:53.995Z,4.55
2022-12-25T10:05:55.956Z,3.88
2022-12-25T10:08:48.705Z,4.40
2022-12-25T10:11:33.276Z,4.85
2022-12-25T10:14:19.879Z,4.57
2022-12-25T10:16:49.280Z,5.18
2022-12-25T10:19:50.045Z,5.22
2022-12-25T10:22:40.074Z,4.32
2022-12-25T10:25:15.592Z,5.70
2022-12-25T10:27:43.251Z,5.10
2022-12-25T10:30:15.877Z,4.88
2022-12-25T10:32:43.681Z,4.90
2022-12-25T10:35:15.477Z,4.50
2022-12-25T10:37:44.556Z,4.95
2022-12-25T10:40:44.156Z,6.15
2022-12-25T10:43:36.984Z,5.70
2022-12-25T10:46:10.549Z,6.05
2022-12-25T10:48:44.162Z,5.55
2022-12-25T10:51:10.936Z,5.95
2022-12-25T10:53:40.592Z,6.00
2022-12-25T10:56:14.395Z,13.18
2022-12-25T10:58:41.060Z,7.07
2022-12-25T11:01:08.698Z,6.05
2022-12-25T11:03:38.634Z,7.65
2022-12-25T11:06:07.374Z,8.75
2022-12-25T11:11:06.270Z,8.70
2022-12-25T11:13:40.822Z,8.20
2022-12-25T11:16:25.523Z,7.13
2022-12-25T11:18:54.438Z,7.60
2022-12-25T11:21:30.534Z,8.57
2022-12-25T11:24:05.832Z,10.98
2022-12-25T11:26:46.672Z,8.48
2022-12-25T11:29:22.875Z,7.05
2022-12-25T11:31:52.712Z,8.40
2022-12-25T11:34:27.217Z,9.30
2022-12-25T11:36:54.385Z,8.60
2022-12-25T11:39:28.504Z,10.20
2022-12-25T11:42:16.197Z,8.80
2022-12-25T11:44:54.835Z,7.10
2022-12-25T11:50:13.382Z,7.80
2022-12-25T11:52:44.706Z,7.93
2022-12-25T11:55:25.541Z,7.47
2022-12-25T11:57:57.123Z,7.43
2022-12-25T12:00:24.030Z,7.18
2022-12-25T12:02:50.781Z,8.15
2022-12-25T12:05:26.387Z,8.18
2022-12-25T12:08:00.614Z,7.90
2022-12-25T12:11:18.756Z,8.02
2022-12-25T12:14:32.866Z,7.50
2022-12-25T12:17:00.559Z,8.05
2022-12-25T12:19:29.899Z,8.02
2022-12-25T12:22:00.048Z,8.15
2022-12-25T12:24:41.625Z,8.52
2022-12-25T12:27:12.246Z,10.32
2022-12-25T12:29:45.950Z,10.30
2022-12-25T12:32:44.577Z,12.73
2022-12-25T12:35:20.077Z,11.93
2022-12-25T12:37:51.451Z,12.82
2022-12-25T12:40:26.033Z,10.10
2022-12-25T12:42:54.179Z,9.38
2022-12-25T12:45:25.747Z,8.90
2022-12-25T12:47:53.125Z,8.23
2022-12-25T12:50:38.043Z,7.93
2022-12-25T12:53:23.458Z,8.02
2022-12-25T12:55:51.624Z,8.65
2022-12-25T12:58:33.624Z,8.55
2022-12-25T13:01:28.630Z,8.88
2022-12-25T13:04:14.132Z,8.05
2022-12-25T13:06:49.257Z,8.27
2022-12-25T13:09:57.648Z,9.10
2022-12-25T13:14:51.951Z,8.80
2022-12-25T13:17:22.429Z,9.82
2022-12-25T13:19:54.939Z,9.65
2022-12-25T13:22:30.863Z,8.80
2022-12-25T13:25:00.577Z,9.27
2022-12-25T13:27:30.373Z,8.73
2022-12-25T13:29:58.572Z,8.65
2022-12-25T13:32:28.460Z,9.48
2022-12-25T13:34:57.031Z,8.48
2022-12-25T13:37:27.007Z,8.55
2022-12-25T13:39:56.855Z,8.52
2022-12-25T13:42:27.624Z,8.52
2022-12-25T13:45:06.196Z,8.07
2022-12-25T13:47:35.754Z,8.10
2022-12-25T13:50:16.859Z,7.90
2022-12-25T13:52:43.532Z,8.38
2022-12-25T13:55:20.651Z,8.30
2022-12-25T13:58:00.976Z,7.60
2022-12-25T14:00:40.312Z,8.15
2022-12-25T14:03:14.680Z,8.45
2022-12-25T14:05:43.286Z,9.57
2022-12-25T14:08:16.334Z,8.55
2022-12-25T14:10:48.166Z,8.98
2022-12-25T14:13:16.231Z,8.75
2022-12-25T14:15:43.817Z,9.32
2022-12-25T14:18:18.473Z,8.02
2022-12-25T14:21:04.780Z,8.77
2022-12-25T14:23:44.300Z,8.40
2022-12-25T14:26:31.560Z,8.32
2022-12-25T14:29:16.883Z,8.95
2022-12-25T14:31:45.892Z,8.82
2022-12-25T14:34:18.467Z,8.88
2022-12-25T14:36:45.461Z,9.52
2022-12-25T14:39:33.323Z,9.88
2022-12-25T14:42:01.707Z,9.60
2022-12-25T14:44:39.503Z,9.38
2022-12-25T14:47:18.641Z,9.88
2022-12-25T14:49:45.899Z,9.82
2022-12-25T14:52:45.345Z,10.35
2022-12-25T14:55:23.712Z,11.55
2022-12-25T14:57:54.135Z,10.30
2022-12-25T15:00:36.632Z,10.25
2022-12-25T15:03:08.179Z,11.18
2022-12-25T15:05:37.926Z,10.23
2022-12-25T15:08:13.674Z,10.32
2022-12-25T15:13:29.288Z,10.68
2022-12-25T15:16:08.697Z,10.57
2022-12-25T15:18:41.799Z,10.73
2022-12-25T15:21:27.396Z,10.82
2022-12-25T15:23:55.884Z,12.15
2022-12-25T15:26:23.595Z,11.73
2022-12-25T15:28:51.659Z,11.63
2022-12-25T15:31:22.172Z,11.10
2022-12-25T15:33:49.556Z,11.32
2022-12-25T15:36:16.381Z,10.00
2022-12-25T15:38:43.846Z,10.07
2022-12-25T15:41:38.622Z,10.20
2022-12-25T15:44:06.887Z,10.40
2022-12-25T15:46:34.334Z,10.13
2022-12-25T15:49:01.182Z,11.68
2022-12-25T15:51:28.164Z,12.13
2022-12-25T15:53:54.970Z,13.00
2022-12-25T15:56:22.426Z,12.70
2022-12-25T15:58:49.452Z,13.27
2022-12-25T16:01:18.354Z,12.98
2022-12-25T16:03:45.350Z,13.15
2022-12-25T16:06:17.112Z,13.68
2022-12-25T16:08:44.414Z,12.88
2022-12-25T16:11:11.573Z,14.00
2022-12-25T16:13:38.601Z,14.40
2022-12-25T16:16:06.830Z,15.48
2022-12-25T16:18:34.160Z,14.10
2022-12-25T16:21:01.013Z,13.55
2022-12-25T16:23:28.735Z,12.85
2022-12-25T16:25:55.496Z,12.38
2022-12-25T16:28:22.300Z,12.60
2022-12-25T16:30:49.019Z,12.80
2022-12-25T16:33:15.759Z,12.27
2022-12-25T16:35:42.461Z,13.40
2022-12-25T16:38:09.118Z,12.55
2022-12-25T16:40:35.939Z,12.88
2022-12-25T16:43:02.639Z,14.95
2022-12-25T16:45:29.315Z,14.20
2022-12-25T16:47:57.202Z,13.70
2022-12-25T16:50:24.375Z,14.67
2022-12-25T16:52:51.313Z,15.55
2022-12-25T16:55:18.045Z,16.38
2022-12-25T16:57:47.686Z,17.25
2022-12-25T17:00:14.912Z,17.52
2022-12-25T17:02:41.673Z,19.23
2022-12-25T17:05:08.893Z,17.02
2022-12-25T17:07:36.629Z,17.73
2022-12-25T17:10:05.323Z,17.42
2022-12-25T17:15:00.248Z,15.18
2022-12-25T17:17:26.967Z,14.65
2022-12-25T17:19:53.645Z,15.13
2022-12-25T17:22:21.561Z,15.23
2022-12-25T17:24:48.330Z,15.88
2022-12-25T17:27:15.107Z,16.92
2022-12-25T17:29:43.806Z,15.43
2022-12-25T17:34:39.907Z,15.02
2022-12-25T17:39:35.845Z,14.45
2022-12-25T17:42:02.583Z,16.05
2022-12-25T17:44:29.251Z,16.38
2022-12-25T17:46:56.017Z,25.27
2022-12-25T17:49:23.252Z,26.35
2022-12-25T17:51:51.084Z,21.13
2022-12-25T17:54:17.852Z,29.03
2022-12-25T17:56:44.546Z,31.00
2022-12-25T17:59:17.989Z,23.70
2022-12-25T18:01:46.376Z,18.65
2022-12-25T18:04:13.245Z,17.65
2022-12-25T18:06:40.356Z,18.15
2022-12-25T18:09:07.921Z,16.13
2022-12-25T18:11:39.033Z,15.80
2022-12-25T18:14:07.590Z,16.67
2022-12-25T18:16:36.874Z,17.05
2022-12-25T18:19:04.236Z,15.50
2022-12-25T18:21:31.016Z,15.48
2022-12-25T18:23:57.786Z,15.13
2022-12-25T18:26:25.998Z,16.95
2022-12-25T18:28:52.825Z,20.05
2022-12-25T18:31:22.205Z,18.05
2022-12-25T18:33:49.946Z,20.50
2022-12-25T18:36:25.948Z,17.55
2022-12-25T18:38:53.891Z,18.77
2022-12-25T18:41:21.801Z,20.02
2022-12-25T18:43:54.372Z,19.45
2022-12-25T18:46:27.635Z,19.10
2022-12-25T18:48:56.057Z,19.27
2022-12-25T18:51:23.184Z,20.23
2022-12-25T18:53:49.960Z,17.75
2022-12-25T18:56:18.281Z,18.08
2022-12-25T18:58:46.345Z,20.27
2022-12-25T19:01:21.905Z,19.92
2022-12-25T19:03:49.898Z,21.70
2022-12-25T19:06:18.476Z,19.77
2022-12-25T19:08:45.438Z,21.45
2022-12-25T19:11:12.238Z,22.42
2022-12-25T19:13:38.984Z,18.27
2022-12-25T19:16:05.946Z,20.42
2022-12-25T19:18:32.618Z,19.83
2022-12-25T19:21:04.064Z,22.13
2022-12-25T19:23:30.890Z,21.13
2022-12-25T19:25:57.604Z,21.27
2022-12-25T19:28:25.153Z,22.10
2022-12-25T19:30:53.881Z,29.30
2022-12-25T19:35:48.940Z,25.88
2022-12-25T19:38:15.894Z,27.48
2022-12-25T19:41:00.129Z,27.42
2022-12-25T19:43:28.888Z,26.02
2022-12-25T19:45:57.910Z,25.20
2022-12-25T19:48:25.284Z,23.75
2022-12-25T19:50:52.313Z,25.33
2022-12-25T19:53:21.441Z,22.95
2022-12-25T19:55:48.077Z,25.83
2022-12-25T19:58:14.775Z,24.38
2022-12-25T20:00:41.835Z,22.40
2022-12-25T20:03:09.513Z,21.40
2022-12-25T20:05:37.431Z,19.45
2022-12-25T20:08:04.247Z,19.07
2022-12-25T20:10:30.968Z,18.23
2022-12-25T20:12:57.630Z,17.13
2022-12-25T20:15:24.324Z,15.75
2022-12-25T20:17:51.009Z,15.23
2022-12-25T20:20:17.756Z,14.68
2022-12-25T20:22:44.488Z,13.80
2022-12-25T20:25:11.829Z,14.95
2022-12-25T20:27:38.500Z,14.85
2022-12-25T20:30:05.677Z,15.15
2022-12-25T20:32:32.343Z,15.60
2022-12-25T20:34:58.978Z,14.55
2022-12-25T20:37:25.631Z,15.55
2022-12-25T20:39:52.349Z,19.08
2022-12-25T20:42:19.481Z,16.20
2022-12-25T20:44:46.150Z,16.80
2022-12-25T20:47:13.997Z,16.95
2022-12-25T20:49:40.695Z,16.60
2022-12-25T20:52:07.865Z,16.55
2022-12-25T20:54:34.819Z,15.13
2022-12-25T20:57:01.551Z,16.50
2022-12-25T20:59:33.482Z,16.25
2022-12-25T21:02:03.832Z,18.20
2022-12-25T21:04:30.670Z,16.70
2022-12-25T21:06:57.381Z,18.67
2022-12-25T21:09:23.993Z,18.70
2022-12-25T21:11:50.596Z,19.13
2022-12-25T21:14:17.211Z,21.05
2022-12-25T21:16:45.205Z,20.45
2022-12-25T21:19:13.061Z,20.83
2022-12-25T21:21:42.756Z,21.57
2022-12-25T21:24:10.300Z,20.60
2022-12-25T21:26:39.167Z,21.27
2022-12-25T21:29:09.469Z,19.52
2022-12-25T21:31:56.098Z,21.65
2022-12-25T21:34:22.853Z,21.15
2022-12-25T21:36:49.533Z,20.92
2022-12-25T21:39:16.565Z,21.38
2022-12-25T21:41:43.283Z,20.95
2022-12-25T21:44:11.081Z,21.60
2022-12-25T21:46:37.982Z,21.67
2022-12-25T21:49:04.965Z,22.00
2022-12-25T21:51:52.105Z,21.77
2022-12-25T21:54:20.919Z,22.70
2022-12-25T21:56:48.875Z,22.35
2022-12-25T21:59:20.974Z,21.25
2022-12-25T22:01:49.846Z,21.08
2022-12-25T22:04:18.870Z,21.33
2022-12-25T22:07:05.516Z,19.77
2022-12-25T22:09:32.713Z,21.77
2022-12-25T22:12:18.437Z,20.45
2022-12-25T22:14:56.673Z,19.60
2022-12-25T22:17:46.215Z,22.27
2022-12-25T22:20:17.173Z,21.67
2022-12-25T22:22:44.666Z,21.55
2022-12-25T22:25:12.564Z,22.50
2022-12-25T22:27:40.866Z,22.80
2022-12-25T22:30:11.079Z,21.92
2022-12-25T22:32:37.742Z,22.27
2022-12-25T22:35:04.766Z,22.17
2022-12-25T22:37:31.423Z,19.75
2022-12-25T22:39:58.116Z,21.42
2022-12-25T22:42:24.875Z,19.58
2022-12-25T22:44:51.508Z,19.92
2022-12-25T22:47:18.212Z,18.95
2022-12-25T22:49:44.883Z,19.02
2022-12-25T22:52:11.482Z,17.58
2022-12-25T22:54:38.284Z,18.23
2022-12-25T22:57:05.305Z,17.33
2022-12-25T22:59:32.905Z,17.45
2022-12-25T23:02:00.313Z,16.55
2022-12-25T23:04:27.917Z,15.85
2022-12-25T23:06:54.671Z,15.95
2022-12-25T23:09:27.409Z,15.75
2022-12-25T23:11:56.154Z,14.65
2022-12-25T23:17:31.754Z,13.80
2022-12-25T23:20:18.702Z,12.43
2022-12-25T23:23:05.495Z,13.00
2022-12-25T23:25:52.821Z,12.60
2022-12-25T23:28:40.163Z,12.73
2022-12-25T23:31:07.229Z,14.05
2022-12-25T23:33:34.057Z,13.63
2022-12-25T23:36:00.713Z,14.40
2022-12-25T23:38:27.364Z,13.48
2022-12-25T23:40:54.118Z,13.63
2022-12-25T23:43:20.892Z,14.23
2022-12-25T23:45:47.572Z,14.23
2022-12-25T23:48:14.224Z,14.68
2022-12-25T23:50:40.853Z,13.88
2022-12-25T23:53:07.592Z,14.45
2022-12-25T23:55:34.607Z,15.10
2022-12-25T23:58:01.266Z,15.13
